createdAt,value
2018-08-23T00:01:34.400Z,7.00
2018-08-23T00:04:12.072Z,7.30
2018-08-23T00:06:50.188Z,7.60
2018-08-23T00:09:20.760Z,7.50
2018-08-23T00:11:51.239Z,7.60
2018-08-23T00:14:21.705Z,7.57
2018-08-23T00:16:52.181Z,7.23
2018-08-23T00:19:22.523Z,7.23
2018-08-23T00:21:52.753Z,7.90
2018-08-23T00:24:24.048Z,7.90
2018-08-23T00:26:55.588Z,8.10
2018-08-23T00:29:27.494Z,7.37
2018-08-23T00:32:02.446Z,7.67
2018-08-23T00:34:35.172Z,7.53
2018-08-23T00:37:06.142Z,7.20
2018-08-23T00:39:36.411Z,7.70
2018-08-23T00:42:08.162Z,8.07
2018-08-23T00:45:02.588Z,7.53
2018-08-23T00:47:33.906Z,7.67
2018-08-23T00:50:04.308Z,7.57
2018-08-23T00:52:43.316Z,8.20
2018-08-23T00:55:22.703Z,7.47
2018-08-23T00:57:53.075Z,7.53
2018-08-23T01:00:24.568Z,7.87
2018-08-23T01:03:03.704Z,7.63
2018-08-23T01:05:39.447Z,7.70
2018-08-23T01:08:10.091Z,7.57
2018-08-23T01:10:41.394Z,7.13
2018-08-23T01:13:12.135Z,8.00
2018-08-23T01:15:44.559Z,7.87
2018-08-23T01:18:18.101Z,8.20
2018-08-23T01:20:49.750Z,7.60
2018-08-23T01:23:20.362Z,7.27
2018-08-23T01:25:51.498Z,8.10
2018-08-23T01:28:22.021Z,7.90
2018-08-23T01:30:52.222Z,7.40
2018-08-23T01:33:23.089Z,7.40
2018-08-23T01:35:53.629Z,6.83
2018-08-23T01:38:24.036Z,8.10
2018-08-23T01:40:59.127Z,8.07
2018-08-23T01:43:29.589Z,7.90
2018-08-23T01:46:00.183Z,7.93
2018-08-23T01:48:30.412Z,8.10
2018-08-23T01:51:01.008Z,8.23
2018-08-23T01:53:36.814Z,7.83
2018-08-23T01:56:07.857Z,8.00
2018-08-23T01:58:38.205Z,8.10
2018-08-23T02:01:17.797Z,8.27
2018-08-23T02:03:48.347Z,8.30
2018-08-23T02:06:18.973Z,7.67
2018-08-23T02:08:49.616Z,8.10
2018-08-23T02:11:20.048Z,7.80
2018-08-23T02:13:50.604Z,7.83
2018-08-23T02:16:21.045Z,8.40
2018-08-23T02:18:51.465Z,8.47
2018-08-23T02:21:22.063Z,8.10
2018-08-23T02:23:53.356Z,8.10
2018-08-23T02:26:24.036Z,7.70
2018-08-23T02:28:54.652Z,8.23
2018-08-23T02:31:25.315Z,8.27
2018-08-23T02:33:56.380Z,8.13
2018-08-23T02:36:26.944Z,8.63
2018-08-23T02:39:02.819Z,8.17
2018-08-23T02:44:44.384Z,7.67
2018-08-23T02:47:15.015Z,7.60
2018-08-23T02:49:44.964Z,8.13
2018-08-23T02:52:14.956Z,8.37
2018-08-23T02:54:44.916Z,8.20
2018-08-23T02:57:14.976Z,8.03
2018-08-23T02:59:46.211Z,8.50
2018-08-23T03:02:16.412Z,7.87
2018-08-23T03:04:46.686Z,8.03
2018-08-23T03:07:17.096Z,8.20
2018-08-23T03:09:47.260Z,8.37
2018-08-23T03:12:19.505Z,8.37
2018-08-23T03:14:49.696Z,8.70
2018-08-23T03:17:53.667Z,8.37
2018-08-23T03:20:23.882Z,8.17
2018-08-23T03:22:55.353Z,8.17
2018-08-23T03:25:26.353Z,8.50
2018-08-23T03:27:56.923Z,8.10
2018-08-23T03:30:27.294Z,8.23
2018-08-23T03:32:57.529Z,8.27
2018-08-23T03:35:28.131Z,8.47
2018-08-23T03:37:58.558Z,8.37
2018-08-23T03:40:29.198Z,7.50
2018-08-23T03:42:59.316Z,8.70
2018-08-23T03:45:29.375Z,8.23
2018-08-23T03:47:59.423Z,8.50
2018-08-23T03:50:29.434Z,9.30
2018-08-23T03:52:59.468Z,8.70
2018-08-23T03:55:29.955Z,8.80
2018-08-23T03:58:02.495Z,8.23
2018-08-23T04:00:37.477Z,8.70
2018-08-23T04:03:13.368Z,9.30
2018-08-23T04:05:51.249Z,8.17
2018-08-23T04:08:21.316Z,7.47
2018-08-23T04:10:51.536Z,8.43
2018-08-23T04:13:22.085Z,8.40
2018-08-23T04:15:52.361Z,8.53
2018-08-23T04:18:22.605Z,7.83
2018-08-23T04:20:56.779Z,8.43
2018-08-23T04:23:27.264Z,8.40
2018-08-23T04:25:57.534Z,8.97
2018-08-23T04:28:27.872Z,8.70
2018-08-23T04:30:58.186Z,8.87
2018-08-23T04:33:28.596Z,8.53
2018-08-23T04:35:58.612Z,8.37
2018-08-23T04:38:28.670Z,8.27
2018-08-23T04:41:05.531Z,8.83
2018-08-23T04:43:35.967Z,8.00
2018-08-23T04:46:10.096Z,10.13
2018-08-23T04:48:40.059Z,8.20
2018-08-23T04:51:10.055Z,9.20
2018-08-23T04:53:40.213Z,8.00
2018-08-23T04:56:10.382Z,8.93
2018-08-23T04:58:40.632Z,8.67
2018-08-23T05:01:11.298Z,8.80
2018-08-23T05:03:41.578Z,8.23
2018-08-23T05:06:16.935Z,8.57
2018-08-23T05:08:47.569Z,8.20
2018-08-23T05:11:17.516Z,8.37
2018-08-23T05:13:48.206Z,8.43
2018-08-23T05:16:18.774Z,8.67
2018-08-23T05:18:48.836Z,8.47
2018-08-23T05:21:18.872Z,8.63
2018-08-23T05:23:48.928Z,8.10
2018-08-23T05:26:29.976Z,8.90
2018-08-23T05:29:05.756Z,8.80
2018-08-23T05:31:35.828Z,8.43
2018-08-23T05:34:08.166Z,8.10
2018-08-23T05:36:38.193Z,7.70
2018-08-23T05:39:09.364Z,7.57
2018-08-23T05:41:39.369Z,7.40
2018-08-23T05:44:25.166Z,7.53
2018-08-23T05:46:56.616Z,7.57
2018-08-23T05:49:41.414Z,10.93
2018-08-23T05:52:11.459Z,8.30
2018-08-23T05:54:41.470Z,8.47
2018-08-23T05:57:11.557Z,7.67
2018-08-23T05:59:41.591Z,8.97
2018-08-23T06:02:11.610Z,8.30
2018-08-23T06:04:42.982Z,8.50
2018-08-23T06:07:12.874Z,8.50
2018-08-23T06:09:43.490Z,8.70
2018-08-23T06:12:13.504Z,9.10
2018-08-23T06:14:43.344Z,8.37
2018-08-23T06:17:13.406Z,8.17
2018-08-23T06:19:43.390Z,8.53
2018-08-23T06:22:13.393Z,8.30
2018-08-23T06:24:43.478Z,8.57
2018-08-23T06:27:13.419Z,8.70
2018-08-23T06:29:43.324Z,8.97
2018-08-23T06:32:13.793Z,8.27
2018-08-23T06:34:50.643Z,9.23
2018-08-23T06:37:22.251Z,8.70
2018-08-23T06:39:52.235Z,9.13
2018-08-23T06:42:27.239Z,9.43
2018-08-23T06:44:57.255Z,8.43
2018-08-23T06:47:27.910Z,8.63
2018-08-23T06:49:57.927Z,9.33
2018-08-23T06:53:01.801Z,9.17
2018-08-23T06:55:34.344Z,9.43
2018-08-23T06:58:05.058Z,10.27
2018-08-23T07:00:35.025Z,8.93
2018-08-23T07:03:05.923Z,8.80
2018-08-23T07:05:35.985Z,9.23
2018-08-23T07:08:06.429Z,8.97
2018-08-23T07:10:36.326Z,9.00
2018-08-23T07:13:06.488Z,8.40
2018-08-23T07:15:36.489Z,9.20
2018-08-23T07:18:12.163Z,8.57
2018-08-23T07:20:42.170Z,9.13
2018-08-23T07:23:22.863Z,9.07
2018-08-23T07:25:52.930Z,8.77
2018-08-23T07:28:22.895Z,8.70
2018-08-23T07:30:54.716Z,8.37
2018-08-23T07:33:24.732Z,8.20
2018-08-23T07:36:05.546Z,7.87
2018-08-23T07:38:35.568Z,7.90
2018-08-23T07:41:05.575Z,8.30
2018-08-23T07:43:35.641Z,7.73
2018-08-23T07:46:05.666Z,7.90
2018-08-23T07:48:35.866Z,7.33
2018-08-23T07:51:18.762Z,7.20
2018-08-23T07:53:48.733Z,7.67
2018-08-23T07:56:26.605Z,7.40
2018-08-23T07:58:57.751Z,7.67
2018-08-23T08:01:29.367Z,8.23
2018-08-23T08:04:00.188Z,7.50
2018-08-23T08:06:30.275Z,7.13
2018-08-23T08:09:01.368Z,7.08
2018-08-23T08:11:41.146Z,6.80
2018-08-23T08:14:45.703Z,7.97
2018-08-23T08:17:20.773Z,7.65
2018-08-23T08:19:57.829Z,7.37
2018-08-23T08:22:27.803Z,7.67
2018-08-23T08:25:02.030Z,7.47
2018-08-23T08:27:31.997Z,8.08
2018-08-23T08:30:01.951Z,7.47
2018-08-23T08:32:32.029Z,6.92
2018-08-23T08:35:01.940Z,6.95
2018-08-23T08:37:32.408Z,7.30
2018-08-23T08:40:02.451Z,7.20
2018-08-23T08:42:33.827Z,7.28
2018-08-23T08:45:08.966Z,7.62
2018-08-23T08:47:39.296Z,7.58
2018-08-23T08:50:09.326Z,8.75
2018-08-23T08:52:39.362Z,7.65
2018-08-23T08:55:11.175Z,7.62
2018-08-23T08:57:43.181Z,7.22
2018-08-23T09:00:14.075Z,7.33
2018-08-23T09:02:44.144Z,7.50
2018-08-23T09:05:14.074Z,7.62
2018-08-23T09:07:45.509Z,6.45
2018-08-23T09:10:15.795Z,6.83
2018-08-23T09:12:47.842Z,6.10
2018-08-23T09:15:17.922Z,6.30
2018-08-23T09:17:47.895Z,5.80
2018-08-23T09:20:19.763Z,5.95
2018-08-23T09:22:52.128Z,6.47
2018-08-23T09:25:29.207Z,5.90
2018-08-23T09:27:59.113Z,5.97
2018-08-23T09:30:30.365Z,6.03
2018-08-23T09:33:05.355Z,6.40
2018-08-23T09:35:35.628Z,5.85
2018-08-23T09:38:13.829Z,5.80
2018-08-23T09:40:43.738Z,6.45
2018-08-23T09:43:13.665Z,5.85
2018-08-23T09:45:43.714Z,5.80
2018-08-23T09:48:14.368Z,5.78
2018-08-23T09:50:44.416Z,5.90
2018-08-23T09:53:19.319Z,5.70
2018-08-23T09:55:49.408Z,5.67
2018-08-23T09:58:26.001Z,5.80
2018-08-23T10:01:01.204Z,5.50
2018-08-23T10:03:36.373Z,5.55
2018-08-23T10:06:11.532Z,5.40
2018-08-23T10:08:46.524Z,5.35
2018-08-23T10:11:21.691Z,5.62
2018-08-23T10:13:56.686Z,5.62
2018-08-23T10:16:31.705Z,5.05
2018-08-23T10:19:05.753Z,4.85
2018-08-23T10:21:40.791Z,5.50
2018-08-23T10:24:17.149Z,5.40
2018-08-23T10:26:47.575Z,5.40
2018-08-23T10:29:17.620Z,5.80
2018-08-23T10:31:47.555Z,5.47
2018-08-23T10:34:17.607Z,5.33
2018-08-23T10:36:47.548Z,5.37
2018-08-23T10:39:17.448Z,5.75
2018-08-23T10:41:47.557Z,5.17
2018-08-23T10:44:17.653Z,5.50
2018-08-23T10:46:52.636Z,5.62
2018-08-23T10:49:22.651Z,5.58
2018-08-23T10:51:52.634Z,5.30
2018-08-23T10:54:22.566Z,5.60
2018-08-23T10:56:52.540Z,5.65
2018-08-23T10:59:22.498Z,6.17
2018-08-23T11:01:52.603Z,6.28
2018-08-23T11:04:22.555Z,5.95
2018-08-23T11:06:58.497Z,5.53
2018-08-23T11:09:33.485Z,5.45
2018-08-23T11:12:03.430Z,5.37
2018-08-23T11:14:38.499Z,5.00
2018-08-23T11:17:13.930Z,4.70
2018-08-23T11:20:47.717Z,4.83
2018-08-23T11:23:19.147Z,4.80
2018-08-23T11:25:49.103Z,4.78
2018-08-23T11:28:20.954Z,4.40
2018-08-23T11:30:51.731Z,4.67
2018-08-23T11:33:21.645Z,4.87
2018-08-23T11:35:51.617Z,5.15
2018-08-23T11:38:21.616Z,4.80
2018-08-23T11:40:51.457Z,4.62
2018-08-23T11:43:21.465Z,4.30
2018-08-23T11:45:57.749Z,4.60
2018-08-23T11:48:27.757Z,4.22
2018-08-23T11:50:57.809Z,3.98
2018-08-23T11:53:27.981Z,4.25
2018-08-23T11:55:57.818Z,4.17
2018-08-23T11:58:27.694Z,4.25
2018-08-23T12:01:02.843Z,4.12
2018-08-23T12:03:32.724Z,4.22
2018-08-23T12:06:02.819Z,3.75
2018-08-23T12:08:32.839Z,3.80
2018-08-23T12:11:02.766Z,3.80
2018-08-23T12:13:32.743Z,3.67
2018-08-23T12:16:03.932Z,3.67
2018-08-23T12:18:36.528Z,3.30
2018-08-23T12:21:06.870Z,3.62
2018-08-23T12:23:37.034Z,3.90
2018-08-23T12:26:07.126Z,3.70
2018-08-23T12:28:42.057Z,3.90
2018-08-23T12:31:12.148Z,3.98
2018-08-23T12:33:42.185Z,3.25
2018-08-23T12:36:12.814Z,3.17
2018-08-23T12:38:47.946Z,2.95
2018-08-23T12:41:23.124Z,3.25
2018-08-23T12:43:53.189Z,2.60
2018-08-23T12:46:23.185Z,2.80
2018-08-23T12:48:57.231Z,3.15
2018-08-23T12:51:27.210Z,2.75
2018-08-23T12:53:57.228Z,2.87
2018-08-23T12:56:27.274Z,2.60
2018-08-23T12:58:57.178Z,3.02
2018-08-23T13:01:27.161Z,2.90
2018-08-23T13:03:57.188Z,2.77
2018-08-23T13:06:27.109Z,2.47
2018-08-23T13:08:57.138Z,2.70
2018-08-23T13:11:27.054Z,3.00
2018-08-23T13:13:57.049Z,2.60
2018-08-23T13:16:27.155Z,2.90
2018-08-23T13:18:57.019Z,3.02
2018-08-23T13:21:26.917Z,2.75
2018-08-23T13:23:56.961Z,2.80
2018-08-23T13:26:32.170Z,2.67
2018-08-23T13:29:02.093Z,2.77
2018-08-23T13:31:32.049Z,2.90
2018-08-23T13:34:02.163Z,4.90
2018-08-23T13:36:32.109Z,3.25
2018-08-23T13:39:02.091Z,2.90
2018-08-23T13:41:32.014Z,2.87
2018-08-23T13:44:02.021Z,2.87
2018-08-23T13:46:31.955Z,2.83
2018-08-23T13:49:02.185Z,2.67
2018-08-23T13:51:32.255Z,4.92
2018-08-23T13:54:02.306Z,3.08
2018-08-23T13:56:32.230Z,3.15
2018-08-23T13:59:02.159Z,3.20
2018-08-23T14:01:32.152Z,3.52
2018-08-23T14:04:02.092Z,3.10
2018-08-23T14:06:32.192Z,2.83
2018-08-23T14:09:02.047Z,3.05
2018-08-23T14:11:31.972Z,2.92
2018-08-23T14:14:02.032Z,3.40
2018-08-23T14:16:32.009Z,3.20
2018-08-23T14:19:01.979Z,3.22
2018-08-23T14:21:31.960Z,3.22
2018-08-23T14:24:01.961Z,3.10
2018-08-23T14:26:31.909Z,3.05
2018-08-23T14:29:01.884Z,3.33
2018-08-23T14:31:31.852Z,3.27
2018-08-23T14:34:01.916Z,3.37
2018-08-23T14:36:31.784Z,3.60
2018-08-23T14:39:01.798Z,3.30
2018-08-23T14:41:31.854Z,3.25
2018-08-23T14:44:01.850Z,3.47
2018-08-23T14:46:37.033Z,3.40
2018-08-23T14:49:06.918Z,3.45
2018-08-23T14:51:36.905Z,3.65
2018-08-23T14:54:11.969Z,3.58
2018-08-23T14:56:46.832Z,3.42
2018-08-23T14:59:16.788Z,3.35
2018-08-23T15:01:46.664Z,3.52
2018-08-23T15:04:16.755Z,4.20
2018-08-23T15:06:46.686Z,3.90
2018-08-23T15:09:16.747Z,3.42
2018-08-23T15:11:46.687Z,3.58
2018-08-23T15:14:16.683Z,3.50
2018-08-23T15:16:46.514Z,3.60
2018-08-23T15:19:16.719Z,3.85
2018-08-23T15:21:46.619Z,4.25
2018-08-23T15:24:16.654Z,3.98
2018-08-23T15:26:51.268Z,4.22
2018-08-23T15:29:21.136Z,4.12
2018-08-23T15:31:51.173Z,4.10
2018-08-23T15:34:21.122Z,3.80
2018-08-23T15:36:51.160Z,4.20
2018-08-23T15:39:21.139Z,4.15
2018-08-23T15:41:51.179Z,4.00
2018-08-23T15:44:21.172Z,4.45
2018-08-23T15:46:51.130Z,4.40
2018-08-23T15:49:21.108Z,3.92
2018-08-23T15:51:51.035Z,3.92
2018-08-23T15:54:26.780Z,4.12
2018-08-23T15:56:56.740Z,4.30
2018-08-23T15:59:26.836Z,3.98
2018-08-23T16:01:56.736Z,3.90
2018-08-23T16:04:26.956Z,4.03
2018-08-23T16:06:57.075Z,4.00
2018-08-23T16:12:51.082Z,4.03
2018-08-23T16:15:21.664Z,4.03
2018-08-23T16:17:56.908Z,4.30
2018-08-23T16:20:32.043Z,4.25
2018-08-23T16:23:02.111Z,4.40
2018-08-23T16:28:43.924Z,3.98
2018-08-23T16:31:13.976Z,4.78
2018-08-23T16:33:43.985Z,4.47
2018-08-23T16:36:14.075Z,4.33
2018-08-23T16:38:44.409Z,4.30
2018-08-23T16:41:14.383Z,4.40
2018-08-23T16:43:45.224Z,4.37
2018-08-23T16:46:15.127Z,4.45
2018-08-23T16:48:45.091Z,8.10
2018-08-23T16:51:15.202Z,4.62
2018-08-23T16:53:45.684Z,4.80
2018-08-23T16:56:15.635Z,4.78
2018-08-23T16:58:45.921Z,4.83
2018-08-23T17:01:15.956Z,4.80
2018-08-23T17:03:54.906Z,4.17
2018-08-23T17:09:18.838Z,4.22
2018-08-23T17:11:49.955Z,4.22
2018-08-23T17:14:19.951Z,4.40
2018-08-23T17:16:54.987Z,4.28
2018-08-23T17:19:25.032Z,4.47
2018-08-23T17:21:54.920Z,4.42
2018-08-23T17:24:25.337Z,4.03
2018-08-23T17:26:56.833Z,4.35
2018-08-23T17:29:27.164Z,4.45
2018-08-23T17:32:15.240Z,4.25
2018-08-23T17:34:45.219Z,3.92
2018-08-23T17:37:15.177Z,4.00
2018-08-23T17:39:45.199Z,4.35
2018-08-23T17:42:20.732Z,4.58
2018-08-23T17:45:13.640Z,4.50
2018-08-23T17:47:43.779Z,4.95
2018-08-23T17:50:13.789Z,5.10
2018-08-23T17:52:44.176Z,4.30
2018-08-23T17:55:14.392Z,4.47
2018-08-23T18:00:47.576Z,4.53
2018-08-23T18:03:18.355Z,4.30
2018-08-23T18:05:52.935Z,4.33
2018-08-23T18:08:22.963Z,4.60
2018-08-23T18:10:53.064Z,3.85
2018-08-23T18:13:23.118Z,4.77
2018-08-23T18:15:58.101Z,4.40
2018-08-23T18:18:29.060Z,4.33
2018-08-23T18:20:59.280Z,4.23
2018-08-23T18:23:29.430Z,4.10
2018-08-23T18:28:59.646Z,4.70
2018-08-23T18:31:29.655Z,4.03
2018-08-23T18:33:59.591Z,4.20
2018-08-23T18:36:29.565Z,4.10
2018-08-23T18:38:59.477Z,4.40
2018-08-23T18:41:29.714Z,3.93
2018-08-23T18:43:59.658Z,4.37
2018-08-23T18:46:29.676Z,4.17
2018-08-23T18:49:00.428Z,4.50
2018-08-23T18:51:31.426Z,4.30
2018-08-23T18:54:01.731Z,4.17
2018-08-23T18:56:31.797Z,4.20
2018-08-23T18:59:01.715Z,4.50
2018-08-23T19:01:31.772Z,4.67
2018-08-23T19:04:01.751Z,4.27
2018-08-23T19:06:37.817Z,4.70
2018-08-23T19:09:09.702Z,4.17
2018-08-23T19:11:39.694Z,4.50
2018-08-23T19:14:09.644Z,4.63
2018-08-23T19:16:44.779Z,4.63
2018-08-23T19:19:14.765Z,4.60
2018-08-23T19:21:44.780Z,4.77
2018-08-23T19:24:14.699Z,4.70
2018-08-23T19:26:44.846Z,4.60
2018-08-23T19:29:15.984Z,4.90
2018-08-23T19:31:45.993Z,4.70
2018-08-23T19:34:16.004Z,4.63
2018-08-23T19:37:08.193Z,4.73
2018-08-23T19:39:56.470Z,4.30
2018-08-23T19:42:28.430Z,4.30
2018-08-23T19:45:16.500Z,4.33
2018-08-23T19:47:51.411Z,4.60
2018-08-23T19:50:21.340Z,5.03
2018-08-23T19:52:51.390Z,4.70
2018-08-23T19:55:21.365Z,4.87
2018-08-23T19:57:51.311Z,4.60
2018-08-23T20:00:21.348Z,4.83
2018-08-23T20:02:51.274Z,4.90
2018-08-23T20:05:21.243Z,4.60
2018-08-23T20:07:51.147Z,4.67
2018-08-23T20:10:23.201Z,5.10
2018-08-23T20:12:53.184Z,5.53
2018-08-23T20:15:26.367Z,5.07
2018-08-23T20:17:57.393Z,4.90
2018-08-23T20:20:27.461Z,4.87
2018-08-23T20:22:57.446Z,5.17
2018-08-23T20:25:27.677Z,4.87
2018-08-23T20:27:57.716Z,4.90
2018-08-23T20:30:27.801Z,5.17
2018-08-23T20:32:57.717Z,5.00
2018-08-23T20:35:27.689Z,5.37
2018-08-23T20:37:58.755Z,5.20
2018-08-23T20:40:28.741Z,4.90
2018-08-23T20:42:58.759Z,5.27
2018-08-23T20:45:28.755Z,5.33
2018-08-23T20:47:58.779Z,5.27
2018-08-23T20:50:28.808Z,5.83
2018-08-23T20:52:58.855Z,5.60
2018-08-23T20:55:29.208Z,5.63
2018-08-23T20:57:59.158Z,5.23
2018-08-23T21:00:29.060Z,5.50
2018-08-23T21:02:58.998Z,5.50
2018-08-23T21:05:28.972Z,5.10
2018-08-23T21:07:58.967Z,5.57
2018-08-23T21:10:28.927Z,5.13
2018-08-23T21:12:58.896Z,5.43
2018-08-23T21:15:28.838Z,5.77
2018-08-23T21:17:58.852Z,5.30
2018-08-23T21:20:28.716Z,5.43
2018-08-23T21:22:58.709Z,5.83
2018-08-23T21:25:28.555Z,6.20
2018-08-23T21:27:58.539Z,5.83
2018-08-23T21:30:28.793Z,6.30
2018-08-23T21:32:58.860Z,6.33
2018-08-23T21:35:28.772Z,6.40
2018-08-23T21:37:58.790Z,6.30
2018-08-23T21:40:28.780Z,6.37
2018-08-23T21:42:58.856Z,6.77
2018-08-23T21:45:28.797Z,6.77
2018-08-23T21:47:59.500Z,6.23
2018-08-23T21:50:29.422Z,6.80
2018-08-23T21:52:59.411Z,6.53
2018-08-23T21:55:34.406Z,7.00
2018-08-23T21:58:06.492Z,6.20
2018-08-23T22:00:41.671Z,6.80
2018-08-23T22:03:13.445Z,7.03
2018-08-23T22:05:43.619Z,7.23
2018-08-23T22:08:13.508Z,7.10
2018-08-23T22:10:43.547Z,6.90
2018-08-23T22:13:13.648Z,6.63
2018-08-23T22:15:49.580Z,6.83
2018-08-23T22:18:20.121Z,7.00
2018-08-23T22:20:50.077Z,6.67
2018-08-23T22:23:20.060Z,7.37
2018-08-23T22:25:50.038Z,7.50
2018-08-23T22:28:19.924Z,7.63
2018-08-23T22:30:49.850Z,7.37
2018-08-23T22:33:20.648Z,7.70
2018-08-23T22:35:50.744Z,8.10
2018-08-23T22:38:20.785Z,7.50
2018-08-23T22:40:50.779Z,7.93
2018-08-23T22:43:20.740Z,8.27
2018-08-23T22:45:50.738Z,8.40
2018-08-23T22:48:20.710Z,8.23
2018-08-23T22:50:50.730Z,7.73
2018-08-23T22:53:20.730Z,7.83
2018-08-23T22:55:50.785Z,7.73
2018-08-23T22:58:20.718Z,7.87
2018-08-23T23:00:50.758Z,7.47
2018-08-23T23:03:26.665Z,7.23
2018-08-23T23:05:56.885Z,6.93
2018-08-23T23:08:26.750Z,6.87
2018-08-23T23:10:56.679Z,7.07
2018-08-23T23:13:26.759Z,7.50
2018-08-23T23:15:56.717Z,7.17
2018-08-23T23:18:26.698Z,8.20
2018-08-23T23:20:56.644Z,7.83
2018-08-23T23:23:26.528Z,8.17
2018-08-23T23:25:56.442Z,8.53
2018-08-23T23:28:26.407Z,8.70
2018-08-23T23:30:56.270Z,8.30
2018-08-23T23:33:26.167Z,8.77
2018-08-23T23:35:56.180Z,8.77
2018-08-23T23:38:26.011Z,8.83
2018-08-23T23:40:55.943Z,8.57
2018-08-23T23:43:26.204Z,9.07
2018-08-23T23:45:56.156Z,9.30
2018-08-23T23:48:27.183Z,8.57
2018-08-23T23:50:57.176Z,8.33
2018-08-23T23:53:27.206Z,8.57
2018-08-23T23:55:57.289Z,8.27
2018-08-23T23:58:27.397Z,8.80
